Time;durP1;ratioP1;P1;durP2;ratioP2;P2;SDS_P1;SDS_P2;PMS_P1;PMS_P2;Temp;Humidity;BMP_temperature;BMP_pressure;BME280_temperature;BME280_humidity;BME280_pressure;Samples;Min_cycle;Max_cycle;Signal;HPM_P1;HPM_P2
2022/09/30 00:02:11;;;;;;;;;;;4.90;99.90;;;;;;5094551;28;19955;-64
2022/09/30 00:04:36;;;;;;;;;;;4.80;99.90;;;;;;5094475;28;19911;-64
2022/09/30 00:07:02;;;;;;;;;;;4.80;99.90;;;;;;5094469;28;19908;-64
2022/09/30 00:09:27;;;;;;;;;;;4.80;99.90;;;;;;5094429;28;20282;-64
2022/09/30 00:11:53;;;;;;;;;;;4.80;99.90;;;;;;5094333;28;19908;-64
2022/09/30 00:14:20;;;;;;;;;;;4.80;99.90;;;;;;5094366;28;19941;-64
2022/09/30 00:16:46;;;;;;;;;;;4.70;99.90;;;;;;5094290;28;20267;-64
2022/09/30 00:19:12;;;;;;;;;;;4.70;99.90;;;;;;5094264;28;19914;-64
2022/09/30 00:21:38;;;;;;;;;;;4.70;99.90;;;;;;5093938;28;19947;-64
2022/09/30 00:24:04;;;;;;;;;;;4.70;99.90;;;;;;5094112;28;19944;-64
2022/09/30 00:26:30;;;;;;;;;;;4.70;99.90;;;;;;5093895;28;19912;-64
2022/09/30 00:28:57;;;;;;;;;;;4.60;99.90;;;;;;5093892;28;19908;-64
2022/09/30 00:31:24;;;;;;;;;;;4.60;99.90;;;;;;5094074;28;19954;-64
2022/09/30 00:34:21;;;;;;;;;;;4.60;99.90;;;;;;5094067;28;19977;-64
2022/09/30 00:39:18;;;;;;;;;;;4.60;99.90;;;;;;5071072;28;19919;-64
2022/09/30 00:41:45;;;;;;;;;;;4.50;99.90;;;;;;5071202;28;19935;-64
2022/09/30 00:44:30;;;;;;;;;;;4.50;99.90;;;;;;5071148;28;19955;-65
2022/09/30 00:46:56;;;;;;;;;;;4.50;99.90;;;;;;5070874;28;19908;-64
2022/09/30 00:49:23;;;;;;;;;;;4.50;99.90;;;;;;5070733;28;20003;-64
2022/09/30 00:51:53;;;;;;;;;;;4.50;99.90;;;;;;5071024;28;20415;-64
2022/09/30 00:54:20;;;;;;;;;;;4.50;99.90;;;;;;5070976;28;19916;-64
2022/09/30 00:56:47;;;;;;;;;;;4.50;99.90;;;;;;5070934;28;20314;-64
2022/09/30 00:59:15;;;;;;;;;;;4.50;99.90;;;;;;5070665;28;20043;-64
2022/09/30 01:01:41;;;;;;;;;;;4.50;99.90;;;;;;5070786;28;19908;-64
2022/09/30 01:04:11;;;;;;;;;;;4.50;99.90;;;;;;5070768;28;20010;-65
2022/09/30 01:06:37;;;;;;;;;;;4.50;99.90;;;;;;5070739;28;19951;-64
2022/09/30 01:09:03;;;;;;;;;;;4.40;99.90;;;;;;5070710;28;19908;-64
2022/09/30 01:11:28;;;;;;;;;;;4.40;99.90;;;;;;5070627;28;20272;-64
2022/09/30 01:13:56;;;;;;;;;;;4.40;99.90;;;;;;5070324;28;19912;-64
2022/09/30 01:16:25;;;;;;;;;;;4.40;99.90;;;;;;5070550;28;19908;-65
2022/09/30 01:19:11;;;;;;;;;;;4.40;99.90;;;;;;5070134;28;19913;-64
2022/09/30 01:21:42;;;;;;;;;;;4.30;99.90;;;;;;5070056;28;20367;-64
2022/09/30 01:24:15;;;;;;;;;;;4.30;99.90;;;;;;5070071;28;19916;-64
2022/09/30 01:26:59;;;;;;;;;;;4.30;99.90;;;;;;5070311;28;20282;-64
2022/09/30 01:29:39;;;;;;;;;;;4.30;99.90;;;;;;5069982;28;19909;-64
2022/09/30 01:32:13;;;;;;;;;;;4.20;99.90;;;;;;5070197;28;20279;-65
2022/09/30 01:34:58;;;;;;;;;;;4.20;99.90;;;;;;5070134;28;19909;-64
2022/09/30 01:37:28;;;;;;;;;;;4.20;99.90;;;;;;5074570;28;20383;-64
2022/09/30 01:40:13;;;;;;;;;;;4.20;99.90;;;;;;5090408;28;19915;-64
2022/09/30 01:42:42;;;;;;;;;;;4.20;99.90;;;;;;5089909;28;19957;-64
2022/09/30 01:45:13;;;;;;;;;;;4.20;99.90;;;;;;5090589;28;20417;-64
2022/09/30 01:47:49;;;;;;;;;;;4.10;99.90;;;;;;5090170;28;19914;-65
2022/09/30 01:50:26;;;;;;;;;;;4.10;99.90;;;;;;5078537;28;19915;-64
2022/09/30 01:53:05;;;;;;;;;;;4.20;99.90;;;;;;5076605;28;19915;-65
2022/09/30 01:55:36;;;;;;;;;;;4.20;99.90;;;;;;5076548;28;19909;-65
2022/09/30 01:58:06;;;;;;;;;;;4.20;99.90;;;;;;5076157;28;19920;-65
2022/09/30 02:00:35;;;;;;;;;;;4.10;99.90;;;;;;5076187;28;19908;-66
2022/09/30 02:03:04;;;;;;;;;;;4.10;99.90;;;;;;5076244;28;19909;-65
2022/09/30 02:05:35;;;;;;;;;;;4.10;99.90;;;;;;5076136;28;19908;-66
2022/09/30 02:08:04;;;;;;;;;;;4.00;99.90;;;;;;5076438;28;20272;-66
2022/09/30 02:10:33;;;;;;;;;;;4.10;99.90;;;;;;5075997;28;19915;-66
2022/09/30 02:13:03;;;;;;;;;;;4.00;99.90;;;;;;5076283;28;20286;-66
2022/09/30 02:15:33;;;;;;;;;;;4.00;99.90;;;;;;5076187;28;20270;-66
2022/09/30 02:18:02;;;;;;;;;;;4.00;99.90;;;;;;5057857;28;19912;-65
2022/09/30 02:20:30;;;;;;;;;;;4.00;99.90;;;;;;5076136;28;20285;-65
2022/09/30 02:23:00;;;;;;;;;;;4.00;99.90;;;;;;5075834;28;19908;-65
2022/09/30 02:25:29;;;;;;;;;;;4.00;99.90;;;;;;5075708;28;19909;-66
2022/09/30 02:27:57;;;;;;;;;;;4.00;99.90;;;;;;5075953;28;19909;-65
2022/09/30 02:30:23;;;;;;;;;;;4.00;99.90;;;;;;5075612;28;20274;-66
2022/09/30 02:32:52;;;;;;;;;;;3.90;99.90;;;;;;5075781;28;19940;-65
2022/09/30 02:35:34;;;;;;;;;;;3.90;99.90;;;;;;5075570;28;19913;-66
2022/09/30 02:38:04;;;;;;;;;;;3.80;99.90;;;;;;5075218;28;19928;-66
2022/09/30 02:40:34;;;;;;;;;;;3.80;99.90;;;;;;5075734;28;19931;-66
2022/09/30 02:43:01;;;;;;;;;;;3.80;99.90;;;;;;5075674;28;20367;-65
2022/09/30 02:45:27;;;;;;;;;;;3.70;99.90;;;;;;5075660;28;20426;-65
2022/09/30 02:50:41;;;;;;;;;;;3.80;99.90;;;;;;5071143;28;20298;-65
2022/09/30 02:53:15;;;;;;;;;;;3.80;99.90;;;;;;5071236;28;20401;-65
2022/09/30 02:55:49;;;;;;;;;;;3.80;99.90;;;;;;5071156;28;19916;-65
2022/09/30 02:58:17;;;;;;;;;;;3.70;99.90;;;;;;5071126;28;19994;-65
2022/09/30 03:00:43;;;;;;;;;;;3.70;99.90;;;;;;5070753;28;19912;-66
2022/09/30 03:03:14;;;;;;;;;;;3.70;99.90;;;;;;5070777;28;19918;-65
2022/09/30 03:05:40;;;;;;;;;;;3.60;99.90;;;;;;5070709;28;19915;-65
2022/09/30 03:08:05;;;;;;;;;;;3.60;99.90;;;;;;5086346;28;19909;-65
2022/09/30 03:10:31;;;;;;;;;;;3.60;99.90;;;;;;5069281;28;19912;-65
2022/09/30 03:13:17;;;;;;;;;;;3.60;99.90;;;;;;5070706;28;19908;-65
2022/09/30 03:16:03;;;;;;;;;;;3.60;99.90;;;;;;5070529;28;19916;-65
2022/09/30 03:18:35;;;;;;;;;;;3.50;99.90;;;;;;5070480;28;19974;-65
2022/09/30 03:21:20;;;;;;;;;;;3.50;99.90;;;;;;5070807;28;20448;-65
2022/09/30 03:24:06;;;;;;;;;;;3.50;99.90;;;;;;5070426;28;20375;-65
2022/09/30 03:26:36;;;;;;;;;;;3.50;99.90;;;;;;5070303;28;19916;-65
2022/09/30 03:29:08;;;;;;;;;;;3.50;99.90;;;;;;5070204;28;19912;-65
2022/09/30 03:31:40;;;;;;;;;;;3.40;99.90;;;;;;5070223;28;19909;-65
2022/09/30 03:34:14;;;;;;;;;;;3.40;99.90;;;;;;5070531;28;20325;-65
2022/09/30 03:36:42;;;;;;;;;;;3.40;99.90;;;;;;5070165;28;19908;-65
2022/09/30 03:39:27;;;;;;;;;;;3.40;99.90;;;;;;5070493;28;19909;-65
2022/09/30 03:42:01;;;;;;;;;;;3.30;99.90;;;;;;5070058;28;19909;-65
2022/09/30 03:44:31;;;;;;;;;;;3.30;99.90;;;;;;5069990;28;19908;-65
2022/09/30 03:47:03;;;;;;;;;;;3.30;99.90;;;;;;5070182;28;19915;-65
2022/09/30 03:49:31;;;;;;;;;;;3.30;99.90;;;;;;5080843;28;19924;-65
2022/09/30 03:51:58;;;;;;;;;;;3.30;99.90;;;;;;5090094;28;19995;-65
2022/09/30 03:54:24;;;;;;;;;;;3.30;99.90;;;;;;5089988;28;19909;-65
2022/09/30 03:56:50;;;;;;;;;;;3.30;99.90;;;;;;5090223;28;20316;-65
2022/09/30 03:59:22;;;;;;;;;;;3.30;99.90;;;;;;5089911;28;20011;-65
2022/09/30 04:01:47;;;;;;;;;;;3.30;99.90;;;;;;5077754;28;19930;-65
2022/09/30 04:04:13;;;;;;;;;;;3.30;99.90;;;;;;5076608;28;19908;-65
2022/09/30 04:06:38;;;;;;;;;;;3.30;99.90;;;;;;5076313;28;19919;-65
2022/09/30 04:09:04;;;;;;;;;;;3.20;99.90;;;;;;5076410;28;19920;-65
2022/09/30 04:11:29;;;;;;;;;;;3.30;99.90;;;;;;5076408;28;20362;-65
2022/09/30 04:13:55;;;;;;;;;;;3.20;99.90;;;;;;5076401;28;19940;-65
2022/09/30 04:16:20;;;;;;;;;;;3.30;99.90;;;;;;5076343;28;20291;-65
2022/09/30 04:18:46;;;;;;;;;;;3.20;99.90;;;;;;5076327;28;19908;-65
2022/09/30 04:21:12;;;;;;;;;;;3.20;99.90;;;;;;5076264;28;20336;-65
2022/09/30 04:23:38;;;;;;;;;;;3.20;99.90;;;;;;5076288;28;19908;-65
2022/09/30 04:26:05;;;;;;;;;;;3.10;99.90;;;;;;5075987;28;19959;-65
2022/09/30 04:28:31;;;;;;;;;;;3.10;99.90;;;;;;5075821;28;20006;-65
2022/09/30 04:30:58;;;;;;;;;;;3.10;99.90;;;;;;5076130;28;20382;-65
2022/09/30 04:33:24;;;;;;;;;;;3.10;99.90;;;;;;5076056;28;19951;-65
2022/09/30 04:35:52;;;;;;;;;;;3.10;99.90;;;;;;5075691;28;19967;-65
2022/09/30 04:38:18;;;;;;;;;;;3.00;99.90;;;;;;5075722;28;19908;-65
2022/09/30 04:40:43;;;;;;;;;;;3.00;99.90;;;;;;5075883;28;19908;-65
2022/09/30 04:43:08;;;;;;;;;;;3.00;99.90;;;;;;5075566;28;19912;-65
2022/09/30 04:45:34;;;;;;;;;;;3.00;99.90;;;;;;5075547;28;19908;-65
2022/09/30 04:48:00;;;;;;;;;;;3.00;99.90;;;;;;5075453;28;19908;-65
2022/09/30 04:50:25;;;;;;;;;;;2.90;99.90;;;;;;5075233;28;20376;-65
2022/09/30 04:52:51;;;;;;;;;;;2.90;99.90;;;;;;5075659;28;19909;-65
2022/09/30 04:55:16;;;;;;;;;;;2.90;99.90;;;;;;5075342;28;19913;-65
2022/09/30 04:57:43;;;;;;;;;;;2.90;99.90;;;;;;5075573;28;19914;-65
2022/09/30 05:00:08;;;;;;;;;;;2.90;99.90;;;;;;5075239;28;19912;-65
2022/09/30 05:02:34;;;;;;;;;;;2.90;99.90;;;;;;5075181;28;19909;-65
2022/09/30 05:05:02;;;;;;;;;;;2.80;99.90;;;;;;5075192;28;19962;-65
2022/09/30 05:07:29;;;;;;;;;;;2.80;99.90;;;;;;5075107;28;19908;-65
2022/09/30 05:09:54;;;;;;;;;;;2.80;99.90;;;;;;5075239;28;19913;-65
2022/09/30 05:12:19;;;;;;;;;;;2.80;99.90;;;;;;5074270;28;19959;-65
2022/09/30 05:14:45;;;;;;;;;;;2.80;99.90;;;;;;5075241;28;19987;-65
2022/09/30 05:17:10;;;;;;;;;;;2.80;99.90;;;;;;5075189;28;20393;-65
2022/09/30 05:19:36;;;;;;;;;;;2.80;99.90;;;;;;5075133;28;20412;-65
2022/09/30 05:22:02;;;;;;;;;;;2.70;99.90;;;;;;5074853;28;20337;-65
2022/09/30 05:24:29;;;;;;;;;;;2.80;99.90;;;;;;5075052;28;19908;-65
2022/09/30 05:26:55;;;;;;;;;;;2.80;99.90;;;;;;5074747;28;19908;-65
2022/09/30 05:29:20;;;;;;;;;;;2.80;99.90;;;;;;5074539;28;19916;-65
2022/09/30 05:31:46;;;;;;;;;;;2.80;99.90;;;;;;5074967;28;19909;-65
2022/09/30 05:34:11;;;;;;;;;;;2.80;99.90;;;;;;5074848;28;19934;-65
2022/09/30 05:36:37;;;;;;;;;;;2.80;99.90;;;;;;5074821;28;19940;-65
2022/09/30 05:39:02;;;;;;;;;;;2.90;99.90;;;;;;5074481;28;19966;-65
2022/09/30 05:41:28;;;;;;;;;;;2.80;99.90;;;;;;5074331;28;19908;-65
2022/09/30 05:43:53;;;;;;;;;;;2.90;99.90;;;;;;5074642;28;19909;-65
2022/09/30 05:46:19;;;;;;;;;;;3.00;99.90;;;;;;5074348;28;19916;-65
2022/09/30 05:48:45;;;;;;;;;;;3.00;99.90;;;;;;5074257;28;19959;-65
2022/09/30 05:51:11;;;;;;;;;;;3.10;99.90;;;;;;5074524;28;19908;-65
2022/09/30 05:53:37;;;;;;;;;;;3.10;99.90;;;;;;5074217;28;19991;-65
2022/09/30 05:56:03;;;;;;;;;;;3.20;99.90;;;;;;5074407;28;19916;-65
2022/09/30 05:58:30;;;;;;;;;;;3.20;99.90;;;;;;5067099;28;19914;-65
2022/09/30 06:00:55;;;;;;;;;;;3.40;99.90;;;;;;5062431;28;20007;-65
2022/09/30 06:03:20;;;;;;;;;;;3.50;99.90;;;;;;5060733;28;20383;-65
2022/09/30 06:05:46;;;;;;;;;;;3.50;99.90;;;;;;5063295;28;19909;-64
2022/09/30 06:08:13;;;;;;;;;;;3.70;99.90;;;;;;5060159;28;19952;-65
2022/09/30 06:10:39;;;;;;;;;;;3.90;99.90;;;;;;5058659;28;19932;-65
2022/09/30 06:13:04;;;;;;;;;;;4.00;99.90;;;;;;5062984;28;19909;-64
2022/09/30 06:15:30;;;;;;;;;;;4.10;99.90;;;;;;5069183;28;19931;-64
2022/09/30 06:17:57;;;;;;;;;;;4.20;99.90;;;;;;5067567;28;19949;-65
2022/09/30 06:20:23;;;;;;;;;;;4.40;99.90;;;;;;5066659;28;19912;-64
2022/09/30 06:22:48;;;;;;;;;;;4.90;99.90;;;;;;5060982;28;19916;-64
2022/09/30 06:25:14;;;;;;;;;;;6.10;99.90;;;;;;5058924;28;19909;-65
2022/09/30 06:27:43;;;;;;;;;;;7.50;99.90;;;;;;5038783;28;19908;-67
2022/09/30 06:30:08;;;;;;;;;;;8.50;99.90;;;;;;5060428;28;20359;-65
2022/09/30 06:32:34;;;;;;;;;;;9.30;99.90;;;;;;5043368;28;19967;-64
2022/09/30 06:35:00;;;;;;;;;;;9.80;99.90;;;;;;5060066;28;19913;-65
2022/09/30 06:37:25;;;;;;;;;;;10.10;99.90;;;;;;5065465;28;19908;-66
2022/09/30 06:39:50;;;;;;;;;;;11.10;99.90;;;;;;5072967;28;19958;-65
2022/09/30 06:42:16;;;;;;;;;;;11.90;99.90;;;;;;5069274;28;19913;-65
2022/09/30 06:44:42;;;;;;;;;;;12.70;99.90;;;;;;5073303;28;19950;-66
2022/09/30 06:47:08;;;;;;;;;;;13.10;99.90;;;;;;5072694;28;19983;-65
2022/09/30 06:49:33;;;;;;;;;;;13.40;99.90;;;;;;5072172;28;19920;-65
2022/09/30 06:52:00;;;;;;;;;;;13.40;99.90;;;;;;5072938;28;19912;-65
2022/09/30 06:54:27;;;;;;;;;;;13.60;99.90;;;;;;5055412;28;19934;-66
2022/09/30 06:56:54;;;;;;;;;;;14.10;99.90;;;;;;5073256;28;20485;-65
2022/09/30 06:59:19;;;;;;;;;;;13.80;99.90;;;;;;5070245;28;19917;-65
2022/09/30 07:01:45;;;;;;;;;;;13.90;99.90;;;;;;5055229;28;20372;-66
2022/09/30 07:04:10;;;;;;;;;;;13.90;99.90;;;;;;5035266;28;20386;-66
2022/09/30 07:06:37;;;;;;;;;;;14.20;99.90;;;;;;5059678;28;19943;-65
2022/09/30 07:09:03;;;;;;;;;;;14.20;99.90;;;;;;5072723;28;20283;-66
2022/09/30 07:11:29;;;;;;;;;;;14.40;99.90;;;;;;5072537;28;19921;-65
2022/09/30 07:13:54;;;;;;;;;;;14.70;99.90;;;;;;5072943;28;19915;-66
2022/09/30 07:16:20;;;;;;;;;;;14.30;99.90;;;;;;5073214;28;20366;-65
2022/09/30 07:18:45;;;;;;;;;;;14.00;99.90;;;;;;5073364;28;19908;-66
2022/09/30 07:21:14;;;;;;;;;;;14.40;99.90;;;;;;5072424;28;19912;-65
2022/09/30 07:23:46;;;;;;;;;;;14.40;99.90;;;;;;5073397;28;20378;-66
2022/09/30 07:26:12;;;;;;;;;;;15.10;99.90;;;;;;5072795;28;19930;-66
2022/09/30 07:28:39;;;;;;;;;;;;;;;;;;5072533;28;19923;-65
2022/09/30 07:31:07;;;;;;;;;;;16.30;99.90;;;;;;5068588;28;20007;-66
2022/09/30 07:33:34;;;;;;;;;;;17.10;99.90;;;;;;5071458;28;19952;-66
2022/09/30 07:36:00;;;;;;;;;;;17.20;99.90;;;;;;5074006;28;20402;-66
2022/09/30 07:38:26;;;;;;;;;;;16.00;99.90;;;;;;5076341;28;19914;-66
2022/09/30 07:40:58;;;;;;;;;;;15.50;99.90;;;;;;5070640;28;19971;-65
2022/09/30 07:43:24;;;;;;;;;;;15.10;99.90;;;;;;5056617;28;19916;-65
2022/09/30 07:45:50;;;;;;;;;;;14.80;99.90;;;;;;5038933;28;19962;-65
2022/09/30 07:48:49;;;;;;;;;;;14.60;99.90;;;;;;5071253;28;19916;-65
2022/09/30 07:51:01;;;;;;;;;;;14.80;99.90;;;;;;5075362;28;19960;-65
2022/09/30 07:53:26;;;;;;;;;;;15.10;99.90;;;;;;5073816;28;19958;-65
2022/09/30 07:55:52;;;;;;;;;;;15.70;99.90;;;;;;5048855;28;19958;-66
2022/09/30 07:58:17;;;;;;;;;;;15.80;99.90;;;;;;5070782;28;19961;-65
2022/09/30 08:00:45;;;;;;;;;;;16.10;99.90;;;;;;5067625;28;19912;-66
2022/09/30 08:03:11;;;;;;;;;;;16.30;99.90;;;;;;5042482;28;20394;-66
2022/09/30 08:05:38;;;;;;;;;;;16.20;99.90;;;;;;5075641;28;19908;-66
2022/09/30 08:08:05;;;;;;;;;;;15.80;99.90;;;;;;5064727;28;19954;-66
2022/09/30 08:10:33;;;;;;;;;;;16.30;99.90;;;;;;5057780;28;19977;-65
2022/09/30 08:12:58;;;;;;;;;;;16.30;99.90;;;;;;5076103;28;19913;-66
2022/09/30 08:15:24;;;;;;;;;;;16.20;99.90;;;;;;5075781;28;20264;-66
2022/09/30 08:17:49;;;;;;;;;;;16.30;99.90;;;;;;5075751;28;20077;-66
2022/09/30 08:20:15;;;;;;;;;;;16.50;99.90;;;;;;5063350;28;19939;-65
2022/09/30 08:22:40;;;;;;;;;;;16.60;99.90;;;;;;5063802;28;19913;-66
2022/09/30 08:25:06;;;;;;;;;;;16.40;99.90;;;;;;5057795;28;20003;-65
2022/09/30 08:27:31;;;;;;;;;;;16.30;99.90;;;;;;5075683;28;19909;-66
2022/09/30 08:29:57;;;;;;;;;;;16.50;99.90;;;;;;5063522;28;19917;-66
2022/09/30 08:32:22;;;;;;;;;;;16.80;99.90;;;;;;5057744;28;19963;-66
2022/09/30 08:34:48;;;;;;;;;;;16.70;99.90;;;;;;5072238;28;20379;-66
2022/09/30 08:37:13;;;;;;;;;;;16.40;99.90;;;;;;5070986;28;20000;-65
2022/09/30 08:39:38;;;;;;;;;;;16.00;99.90;;;;;;5060726;28;19917;-65
2022/09/30 08:42:11;;;;;;;;;;;16.10;99.90;;;;;;5071914;28;19962;-65
2022/09/30 08:44:42;;;;;;;;;;;16.10;99.90;;;;;;5074636;28;19920;-65
2022/09/30 08:50:00;;;;;;;;;;;16.60;99.90;;;;;;5090519;27;19923;-66
2022/09/30 08:52:27;;;;;;;;;;;16.70;99.90;;;;;;5090376;28;19995;-66
2022/09/30 08:54:54;;;;;;;;;;;17.50;99.90;;;;;;5090629;28;19912;-66
2022/09/30 08:57:20;;;;;;;;;;;17.50;99.90;;;;;;5090660;28;20371;-66
2022/09/30 08:59:48;;;;;;;;;;;17.60;99.90;;;;;;5090636;28;19912;-66
2022/09/30 09:02:23;;;;;;;;;;;17.60;99.90;;;;;;5090865;28;20019;-66
2022/09/30 09:04:50;;;;;;;;;;;18.80;99.90;;;;;;5090269;28;20407;-66
2022/09/30 09:07:21;;;;;;;;;;;18.20;99.90;;;;;;5090614;28;19912;-66
2022/09/30 09:09:56;;;;;;;;;;;18.00;99.90;;;;;;5089916;28;19913;-65
2022/09/30 09:12:27;;;;;;;;;;;17.80;99.90;;;;;;5089743;28;19912;-66
2022/09/30 09:15:03;;;;;;;;;;;17.50;99.90;;;;;;5090652;28;19938;-66
2022/09/30 09:17:35;;;;;;;;;;;17.90;99.90;;;;;;5089063;28;19923;-65
2022/09/30 09:22:43;;;;;;;;;;;18.20;99.90;;;;;;5111528;27;19912;-73
2022/09/30 09:25:17;;;;;;;;;;;18.30;99.90;;;;;;5094336;28;20275;-73
2022/09/30 09:27:50;;;;;;;;;;;18.60;99.90;;;;;;5131528;28;19912;-72
2022/09/30 09:30:18;;;;;;;;;;;18.80;99.90;;;;;;5131626;28;19912;-72
2022/09/30 09:32:47;;;;;;;;;;;18.50;99.90;;;;;;5115551;28;19919;-72
2022/09/30 09:35:14;;;;;;;;;;;18.70;99.90;;;;;;5112496;28;19916;-72
2022/09/30 09:38:34;;;;;;;;;;;18.10;99.90;;;;;;5131670;28;19946;-73
2022/09/30 09:40:57;;;;;;;;;;;18.80;99.90;;;;;;5120656;28;19916;-72
2022/09/30 09:43:29;;;;;;;;;;;18.30;99.90;;;;;;5109719;28;20381;-72
2022/09/30 09:45:59;;;;;;;;;;;18.60;99.90;;;;;;5110090;28;19916;-72
2022/09/30 09:48:25;;;;;;;;;;;18.80;99.90;;;;;;5100670;28;20390;-73
2022/09/30 09:50:58;;;;;;;;;;;18.60;99.90;;;;;;5107004;28;19923;-73
2022/09/30 09:53:32;;;;;;;;;;;18.70;99.90;;;;;;5114296;28;19998;-73
2022/09/30 09:55:58;;;;;;;;;;;18.90;99.90;;;;;;5107631;28;19912;-72
2022/09/30 09:58:25;;;;;;;;;;;18.90;99.90;;;;;;5106474;28;19916;-73
2022/09/30 10:03:22;;;;;;;;;;;18.20;99.90;;;;;;5106689;28;19908;-72
2022/09/30 10:06:05;;;;;;;;;;;18.60;99.90;;;;;;5107767;28;19995;-72
2022/09/30 10:08:33;;;;;;;;;;;18.60;99.90;;;;;;5110092;28;19943;-72
2022/09/30 10:11:00;;;;;;;;;;;18.90;99.90;;;;;;5113632;28;20363;-72
2022/09/30 10:13:28;;;;;;;;;;;18.60;99.90;;;;;;5096209;28;20402;-73
2022/09/30 10:15:55;;;;;;;;;;;18.60;99.90;;;;;;5096677;28;20290;-73
2022/09/30 10:18:37;;;;;;;;;;;18.60;99.90;;;;;;5123012;28;19908;-72
2022/09/30 10:21:07;;;;;;;;;;;18.70;99.90;;;;;;5101841;28;20008;-73
2022/09/30 10:23:37;;;;;;;;;;;18.70;99.90;;;;;;5108302;28;20428;-72
2022/09/30 10:26:15;;;;;;;;;;;19.00;99.90;;;;;;5107253;28;19999;-72
2022/09/30 10:28:45;;;;;;;;;;;18.80;99.90;;;;;;5109866;28;19912;-72
2022/09/30 10:31:14;;;;;;;;;;;18.50;99.90;;;;;;5105523;28;20346;-73
2022/09/30 10:33:42;;;;;;;;;;;18.60;99.90;;;;;;5078033;28;19920;-72
2022/09/30 10:36:10;;;;;;;;;;;18.20;99.90;;;;;;5094779;28;20398;-72
2022/09/30 10:38:37;;;;;;;;;;;18.80;99.90;;;;;;5090815;28;19916;-72
2022/09/30 10:41:03;;;;;;;;;;;18.70;99.90;;;;;;5082484;28;19920;-72
2022/09/30 10:43:31;;;;;;;;;;;18.60;99.90;;;;;;5096313;28;20390;-72
2022/09/30 10:46:01;;;;;;;;;;;18.80;99.90;;;;;;5111433;27;19915;-72
2022/09/30 10:48:28;;;;;;;;;;;18.40;99.90;;;;;;5096079;28;19911;-72
2022/09/30 10:50:55;;;;;;;;;;;17.80;99.90;;;;;;5090688;28;19909;-72
2022/09/30 10:53:23;;;;;;;;;;;17.50;99.90;;;;;;5085015;28;19919;-72
2022/09/30 10:55:49;;;;;;;;;;;18.00;99.90;;;;;;5095921;28;19953;-73
2022/09/30 10:58:23;;;;;;;;;;;18.10;99.90;;;;;;5076746;28;19912;-74
2022/09/30 11:00:50;;;;;;;;;;;18.30;99.90;;;;;;5094528;28;19918;-73
2022/09/30 11:03:17;;;;;;;;;;;18.30;99.90;;;;;;5128862;27;19912;-73
2022/09/30 11:05:44;;;;;;;;;;;18.80;99.90;;;;;;5094531;28;19915;-74
2022/09/30 11:08:15;;;;;;;;;;;19.00;99.90;;;;;;5095821;28;19909;-73
2022/09/30 11:10:45;;;;;;;;;;;18.60;99.90;;;;;;5079727;28;20015;-73
2022/09/30 11:13:28;;;;;;;;;;;18.20;99.90;;;;;;5086650;28;19919;-73
2022/09/30 11:16:05;;;;;;;;;;;18.20;99.90;;;;;;5080434;28;19916;-73
2022/09/30 11:18:36;;;;;;;;;;;18.30;99.90;;;;;;5074007;28;20370;-73
2022/09/30 11:21:07;;;;;;;;;;;18.70;99.90;;;;;;5074680;28;20439;-74
2022/09/30 11:23:36;;;;;;;;;;;19.20;99.90;;;;;;5093556;28;19912;-74
2022/09/30 11:26:20;;;;;;;;;;;18.60;99.90;;;;;;5091662;28;19950;-73
2022/09/30 11:28:53;;;;;;;;;;;18.60;99.90;;;;;;5085134;28;20405;-73
2022/09/30 11:31:25;;;;;;;;;;;18.10;99.90;;;;;;5093820;28;19984;-73
2022/09/30 11:33:59;;;;;;;;;;;18.00;99.90;;;;;;5094947;28;20400;-73
2022/09/30 11:36:44;;;;;;;;;;;17.20;99.90;;;;;;5094570;28;19996;-73
2022/09/30 11:39:25;;;;;;;;;;;17.10;99.90;;;;;;5091890;28;19962;-73
2022/09/30 11:42:03;;;;;;;;;;;17.10;99.90;;;;;;5098068;28;19947;-73
2022/09/30 11:44:33;;;;;;;;;;;17.50;99.90;;;;;;5092752;28;20359;-74
2022/09/30 11:47:18;;;;;;;;;;;17.20;99.90;;;;;;5093531;28;20370;-73
2022/09/30 11:50:05;;;;;;;;;;;17.10;99.90;;;;;;5093473;28;19959;-73
2022/09/30 11:52:46;;;;;;;;;;;17.20;99.90;;;;;;5094209;28;19920;-73
2022/09/30 11:55:20;;;;;;;;;;;17.00;99.90;;;;;;5094882;28;19908;-73
2022/09/30 11:58:06;;;;;;;;;;;17.10;99.90;;;;;;5094932;28;20006;-73
2022/09/30 12:00:34;;;;;;;;;;;17.30;99.90;;;;;;5094700;28;19908;-73
2022/09/30 12:03:05;;;;;;;;;;;17.40;99.90;;;;;;5093752;28;20429;-73
2022/09/30 12:05:34;;;;;;;;;;;16.90;99.90;;;;;;5092933;28;19955;-73
2022/09/30 12:08:09;;;;;;;;;;;16.90;99.90;;;;;;5118159;27;19913;-73
2022/09/30 12:10:40;;;;;;;;;;;16.60;99.90;;;;;;5074411;28;19916;-73
2022/09/30 12:13:11;;;;;;;;;;;17.00;99.90;;;;;;5074410;28;20003;-73
2022/09/30 12:15:37;;;;;;;;;;;17.00;99.90;;;;;;5106895;28;19913;-73
2022/09/30 12:18:05;;;;;;;;;;;17.10;99.90;;;;;;5088240;28;19912;-73
2022/09/30 12:20:32;;;;;;;;;;;17.10;99.90;;;;;;5093976;28;19915;-73
2022/09/30 12:23:04;;;;;;;;;;;16.70;99.90;;;;;;5093965;28;20289;-73
2022/09/30 12:25:32;;;;;;;;;;;16.90;99.90;;;;;;5094299;28;19916;-73
2022/09/30 12:30:15;;;;;;;;;;;17.20;99.90;;;;;;5091827;28;20324;-73
2022/09/30 12:30:52;;;;;;;;;;;17.60;99.90;;;;;;5094084;28;19909;-74
2022/09/30 12:33:26;;;;;;;;;;;17.60;99.90;;;;;;5094256;28;19995;-73
2022/09/30 12:36:13;;;;;;;;;;;17.70;99.90;;;;;;5094329;28;19912;-73
2022/09/30 12:38:51;;;;;;;;;;;18.00;99.90;;;;;;5094036;28;19914;-73
2022/09/30 12:41:37;;;;;;;;;;;18.20;99.90;;;;;;5094015;28;19919;-73
2022/09/30 12:44:15;;;;;;;;;;;17.80;99.90;;;;;;5094090;28;19909;-73
2022/09/30 12:46:52;;;;;;;;;;;17.40;99.90;;;;;;5092659;28;19908;-73
2022/09/30 12:49:20;;;;;;;;;;;17.40;99.90;;;;;;5093944;28;19920;-73
2022/09/30 12:51:48;;;;;;;;;;;17.50;99.90;;;;;;5092828;28;20105;-73
2022/09/30 12:54:17;;;;;;;;;;;17.60;99.90;;;;;;5092692;28;20352;-73
2022/09/30 12:56:44;;;;;;;;;;;18.00;99.90;;;;;;5093683;28;19908;-73
2022/09/30 12:59:10;;;;;;;;;;;17.90;99.90;;;;;;5092629;28;19916;-73
2022/09/30 13:01:36;;;;;;;;;;;17.80;99.90;;;;;;5093769;28;19951;-73
2022/09/30 13:04:04;;;;;;;;;;;17.60;99.90;;;;;;5092516;28;19974;-73
2022/09/30 13:06:47;;;;;;;;;;;17.70;99.90;;;;;;5093827;28;19912;-73
2022/09/30 13:14:33;;;;;;;;;;;17.60;99.90;;;;;;5091161;27;19913;-65
2022/09/30 13:17:00;;;;;;;;;;;17.60;99.90;;;;;;5091307;28;19966;-66
2022/09/30 13:19:43;;;;;;;;;;;17.50;99.90;;;;;;5089604;28;20010;-66
2022/09/30 13:22:28;;;;;;;;;;;17.60;99.90;;;;;;5091148;28;19908;-65
2022/09/30 13:27:37;;;;;;;;;;;17.50;99.90;;;;;;5071401;28;19919;-65
2022/09/30 13:30:24;;;;;;;;;;;17.40;99.90;;;;;;5070686;28;19912;-66
2022/09/30 13:32:56;;;;;;;;;;;17.60;99.90;;;;;;5070683;28;20344;-66
2022/09/30 13:35:42;;;;;;;;;;;17.80;99.90;;;;;;5070641;28;19923;-66
2022/09/30 13:38:09;;;;;;;;;;;17.40;99.90;;;;;;5070468;28;20425;-66
2022/09/30 13:40:35;;;;;;;;;;;17.50;99.90;;;;;;5070733;28;19913;-66
2022/09/30 13:43:03;;;;;;;;;;;17.60;99.90;;;;;;5070770;28;20026;-66
2022/09/30 13:45:32;;;;;;;;;;;17.40;99.60;;;;;;5070580;28;19917;-66
2022/09/30 13:48:09;;;;;;;;;;;17.40;99.90;;;;;;5069161;28;19909;-66
2022/09/30 13:50:44;;;;;;;;;;;17.50;99.90;;;;;;5070261;28;19913;-65
2022/09/30 13:53:29;;;;;;;;;;;17.50;99.90;;;;;;5070494;28;19959;-66
2022/09/30 13:55:56;;;;;;;;;;;17.40;99.90;;;;;;5070173;28;20391;-65
2022/09/30 13:58:33;;;;;;;;;;;17.20;99.90;;;;;;5070520;28;20389;-65
2022/09/30 14:01:09;;;;;;;;;;;17.30;99.90;;;;;;5070282;28;20291;-65
2022/09/30 14:03:38;;;;;;;;;;;17.30;99.90;;;;;;5070305;28;19940;-65
2022/09/30 14:06:13;;;;;;;;;;;17.00;99.90;;;;;;5068721;28;19917;-65
2022/09/30 14:08:57;;;;;;;;;;;17.10;99.90;;;;;;5070304;28;19909;-65
2022/09/30 14:11:43;;;;;;;;;;;17.20;99.70;;;;;;5070068;28;19916;-65
2022/09/30 14:14:21;;;;;;;;;;;17.20;99.80;;;;;;5069909;28;20406;-66
2022/09/30 14:17:02;;;;;;;;;;;17.30;99.90;;;;;;5085722;28;19912;-65
2022/09/30 14:19:38;;;;;;;;;;;17.20;99.90;;;;;;5069943;28;19948;-65
2022/09/30 14:22:05;;;;;;;;;;;17.40;99.90;;;;;;5070044;28;20330;-65
2022/09/30 14:24:32;;;;;;;;;;;17.50;99.90;;;;;;5069800;28;20011;-65
2022/09/30 14:27:15;;;;;;;;;;;17.50;99.90;;;;;;5084880;28;19924;-65
2022/09/30 14:29:49;;;;;;;;;;;17.30;99.70;;;;;;5071460;28;20016;-65
2022/09/30 14:32:18;;;;;;;;;;;17.30;99.90;;;;;;5071549;28;20287;-66
2022/09/30 14:34:44;;;;;;;;;;;17.20;99.90;;;;;;5089664;28;20390;-65
2022/09/30 14:37:13;;;;;;;;;;;17.20;99.90;;;;;;5086276;28;20366;-66
2022/09/30 14:39:41;;;;;;;;;;;17.30;99.90;;;;;;5076363;28;20376;-65
2022/09/30 14:42:11;;;;;;;;;;;17.30;99.90;;;;;;5076410;28;20003;-65
2022/09/30 14:44:37;;;;;;;;;;;17.20;99.90;;;;;;5076092;28;20374;-65
2022/09/30 14:47:03;;;;;;;;;;;17.10;99.90;;;;;;5075984;28;20006;-65
2022/09/30 14:49:32;;;;;;;;;;;16.90;99.90;;;;;;5076310;28;19908;-65
2022/09/30 14:52:01;;;;;;;;;;;17.10;99.90;;;;;;5076302;28;19915;-65
2022/09/30 14:54:28;;;;;;;;;;;17.30;99.90;;;;;;5076164;28;19952;-66
2022/09/30 14:56:54;;;;;;;;;;;17.20;99.40;;;;;;5075824;28;19915;-65
2022/09/30 14:59:25;;;;;;;;;;;17.20;99.80;;;;;;5076186;28;19932;-66
2022/09/30 15:01:54;;;;;;;;;;;17.30;99.40;;;;;;5076131;28;20327;-65